Latest Coastal Weather Observations for Dunalley

IDT60701

Issued at 6:12 am EST Tuesday 24 September 2019 (issued every 10 minutes, with the page automatically refreshed every 10 minutes)

About coastal observations | Map of coastal stations | Coastal observations for TAS | Marine services | Other Formats
Station Details ID: 094254 Name: DUNALLEY (STROUD POINT) Lat: -42.90 Lon: 147.79 Height: 12.43 m
Data from the previous 72 hours. | See also: Recent months at Dunalley
Date/Time
EST
Wind Sea
Height
m
Swell Vis
km
Cloud Weather Temp
°C
Press
hPa
Rain since
9am
mm
Dir  Spd
kts
Gust
kts
Height
m
Period
s
Dir
24/06:00am NW 10 15 - - - - - - - 8.6 1017.8 0.0
24/05:30am WNW 9 13 - - - - - - - 8.7 1017.9 0.0
24/05:00am NW 11 17 - - - - - - - 8.9 1017.7 0.0
24/04:30am WNW 13 17 - - - - - - - 8.7 1017.8 0.0
24/04:00am W 14 21 - - - - - - - 8.8 1017.8 0.0
24/03:30am W 14 17 - - - - - - - 9.0 1017.6 0.0
24/03:00am WNW 10 16 - - - - - - - 9.3 1017.6 0.0
24/02:30am WNW 8 11 - - - - - - - 8.9 1018.0 0.0
24/02:00am NW 8 11 - - - - - - - 8.4 1018.2 0.0
24/01:30am NW 10 16 - - - - - - - 9.0 1018.4 0.0
24/01:00am NW 10 14 - - - - - - - 8.8 1018.5 0.0
24/12:30am NW 9 14 - - - - - - - 8.8 1018.6 0.0
24/12:00am NW 7 15 - - - - - - - 9.1 1018.8 0.0
 
Date/Time
EST
Wind Sea
Height
m
Swell Vis
km
Cloud Weather Temp
°C
Press
hPa
Rain since
9am
mm
Dir  Spd
kts
Gust
kts
Height
m
Period
s
Dir
23/11:30pm WNW 9 13 - - - - - - - 9.1 1018.8 0.0
23/11:00pm WNW 5 8 - - - - - - - 8.8 1019.1 0.0
23/10:30pm WNW 9 12 - - - - - - - 8.8 1019.6 0.0
23/10:00pm WNW 9 11 - - - - - - - 8.8 1019.9 0.0
23/09:30pm WNW 8 11 - - - - - - - 8.7 1020.0 0.0
23/09:00pm WSW 13 15 - - - - - - - 10.2 1020.0 0.0
23/08:30pm WSW 14 17 - - - - - - - 10.5 1019.9 0.0
23/08:00pm WSW 14 17 - - - - - - - 10.5 1019.9 0.0
23/07:30pm WSW 13 17 - - - - - - - 10.8 1019.6 0.0
23/07:00pm SW 4 7 - - - - - - - 9.7 1019.5 0.0
23/06:30pm CALM 0 3 - - - - - - - 9.5 1019.0 0.0
23/06:00pm S 1 2 - - - - - - - 10.3 1018.9 0.0
23/05:30pm S 5 7 - - - - - - - 10.8 1018.7 0.0
23/05:00pm S 10 14 - - - - - - - 11.2 1018.4 0.0
23/04:30pm S 12 15 - - - - - - - 11.7 1018.2 0.0
23/04:00pm SW 3 4 - - - - - - - 12.6 1017.8 0.0
23/03:30pm SW 2 3 - - - - - - - 12.8 1017.8 0.0
23/03:00pm SW 5 9 - - - - - - - 12.2 1017.7 0.0
23/02:30pm S 5 8 - - - - - - - 12.9 1017.7 0.0
23/02:00pm WSW 7 11 - - - - - - - 13.3 1017.7 0.0
23/01:30pm WSW 7 12 - - - - - - - 13.2 1017.7 0.0
23/01:00pm WSW 7 9 - - - - - - - 13.1 1017.8 0.0
23/12:30pm WSW 4 5 - - - - - - - 12.5 1017.9 0.0
23/12:00pm WSW 4 5 - - - - - - - 12.3 1018.1 0.0
23/11:30am WSW 5 6 - - - - - - - 11.7 1018.3 0.0
23/11:00am WSW 8 9 - - - - - - - 11.3 1018.5 0.0
23/10:30am WSW 9 12 - - - - - - - 11.7 1018.5 0.0
23/10:00am W 9 10 - - - - - - - 11.0 1018.6 0.0
23/09:30am WSW 9 11 - - - - - - - 11.0 1018.6 0.0
23/09:00am WNW 9 12 - - - - - - - 10.7 1018.5 0.0
23/08:30am WNW 9 11 - - - - - - - 10.2 1018.5 0.0
23/08:00am NW 9 12 - - - - - - - 9.3 1018.4 0.0
23/07:30am NW 8 11 - - - - - - - 8.4 1018.4 0.0
23/07:00am NW 8 11 - - - - - - - 8.0 1018.1 0.0
23/06:30am WNW 9 13 - - - - - - - 7.0 1017.9 0.0
23/06:00am NW 10 12 - - - - - - - 6.7 1017.8 0.0
23/05:30am NW 8 11 - - - - - - - 6.8 1017.6 0.0
23/05:00am NW 8 12 - - - - - - - 6.8 1017.6 0.0
23/04:30am NW 8 12 - - - - - - - 6.8 1017.7 0.0
23/04:00am NW 9 13 - - - - - - - 6.7 1017.7 0.0
23/03:30am NW 9 13 - - - - - - - 7.2 1017.8 0.0
23/03:00am NW 9 12 - - - - - - - 6.9 1017.8 0.0
23/02:30am NW 7 10 - - - - - - - 7.0 1017.9 0.0
23/02:00am NW 7 10 - - - - - - - 7.2 1018.0 0.0
23/01:30am NW 8 11 - - - - - - - 7.0 1018.3 0.0
23/01:00am NW 7 12 - - - - - - - 6.8 1018.6 0.0
23/12:30am NW 7 11 - - - - - - - 6.9 1018.6 0.0
23/12:00am NW 7 11 - - - - - - - 7.5 1018.6 0.0
 
Date/Time
EST
Wind Sea
Height
m
Swell Vis
km
Cloud Weather Temp
°C
Press
hPa
Rain since
9am
mm
Dir  Spd
kts
Gust
kts
Height
m
Period
s
Dir
22/11:30pm NW 7 9 - - - - - - - 7.2 1018.7 0.0
22/11:00pm NW 8 10 - - - - - - - 7.3 1018.9 0.0
22/10:30pm NW 7 8 - - - - - - - 7.3 1018.9 0.0
22/10:00pm WNW 3 5 - - - - - - - 7.7 1019.2 0.0
22/09:30pm WNW 3 4 - - - - - - - 7.3 1019.1 0.0
22/09:00pm W 5 7 - - - - - - - 8.0 1019.0 0.0
22/08:30pm WSW 11 13 - - - - - - - 9.1 1018.7 0.0
22/08:00pm WSW 12 14 - - - - - - - 9.4 1018.5 0.0
22/07:30pm WSW 12 15 - - - - - - - 9.4 1018.4 0.0
22/07:00pm WSW 14 16 - - - - - - - 9.2 1018.1 0.0
22/06:30pm SW 16 19 - - - - - - - 9.3 1017.8 0.0
22/06:00pm WSW 17 21 - - - - - - - 9.6 1017.4 0.0
22/05:30pm SW 11 14 - - - - - - - 10.1 1017.2 0.0
22/05:00pm SW 13 16 - - - - - - - 10.2 1016.8 0.0
22/04:30pm SW 17 21 - - - - - - - 10.7 1016.5 0.0
22/04:00pm SW 16 19 - - - - - - - 10.9 1016.1 0.0
22/03:30pm SW 13 17 - - - - - - - 11.0 1016.1 0.0
22/03:00pm SW 11 16 - - - - - - - 10.8 1015.8 0.0
22/02:30pm SW 7 9 - - - - - - - 10.7 1015.8 0.0
22/02:00pm S 4 7 - - - - - - - 10.8 1016.0 0.0
22/01:30pm SSW 9 12 - - - - - - - 11.3 1015.9 0.0
22/01:00pm SSW 13 17 - - - - - - - 11.0 1015.9 0.0
22/12:30pm SW 10 11 - - - - - - - 10.9 1015.7 0.0
22/12:00pm SW 11 13 - - - - - - - 10.7 1015.6 0.0
22/11:30am WSW 13 15 - - - - - - - 10.7 1015.7 0.0
22/11:00am WSW 12 14 - - - - - - - 10.6 1015.6 0.0
22/10:30am WSW 14 17 - - - - - - - 10.6 1015.6 0.0
22/10:00am W 15 18 - - - - - - - 11.1 1015.4 0.0
22/09:30am W 14 17 - - - - - - - 11.1 1015.4 0.0
22/09:00am W 15 23 - - - - - - - 10.4 1015.2 2.4
22/08:30am WNW 9 13 - - - - - - - 9.9 1015.2 2.4
22/08:00am WNW 12 16 - - - - - - - 8.7 1014.8 2.4
22/07:30am NW 12 16 - - - - - - - 8.6 1014.4 2.4
22/07:00am NW 10 14 - - - - - - - 8.0 1014.1 2.4
22/06:30am NW 10 13 - - - - - - - 7.9 1013.8 2.4
22/06:00am NW 9 12 - - - - - - - 7.4 1013.2 2.4
22/05:30am NW 7 10 - - - - - - - 7.4 1012.8 2.4
22/05:00am WNW 7 11 - - - - - - - 7.5 1012.4 2.4
22/04:30am WNW 9 12 - - - - - - - 7.7 1011.9 2.4
22/04:00am WNW 11 15 - - - - - - - 8.1 1011.5 2.4
22/03:30am W 13 17 - - - - - - - 8.5 1010.9 2.4
22/03:00am W 13 18 - - - - - - - 8.5 1010.4 2.4
22/02:30am W 12 18 - - - - - - - 8.6 1009.9 2.4
22/02:00am W 17 22 - - - - - - - 9.1 1009.4 2.4
22/01:30am W 19 25 - - - - - - - 9.3 1008.9 2.4
22/01:00am W 20 26 - - - - - - - 9.5 1008.5 2.4
22/12:30am W 21 28 - - - - - - - 9.7 1008.0 2.4
22/12:00am WNW 21 31 - - - - - - - 10.0 1007.5 2.4
 
Date/Time
EST
Wind Sea
Height
m
Swell Vis
km
Cloud Weather Temp
°C
Press
hPa
Rain since
9am
mm
Dir  Spd
kts
Gust
kts
Height
m
Period
s
Dir
21/11:48pm WNW 20 30 - - - - - - - 9.7 1007.5 2.4
21/11:30pm WNW 23 31 - - - - - - - 10.0 1007.2 2.4
21/11:00pm WNW 20 27 - - - - - - - 10.3 1006.4 2.4
21/10:30pm WNW 20 27 - - - - - - - 10.5 1005.9 2.4
21/10:01pm WNW 21 33 - - - - - - - 11.2 1005.0 2.4
21/10:00pm WNW 21 30 - - - - - - - 11.3 1005.0 2.4
21/09:32pm WNW 23 34 - - - - - - - 11.6 1004.3 2.4
21/09:30pm WNW 25 34 - - - - - - - 11.7 1004.2 2.4
21/09:00pm NW 21 33 - - - - - - - 12.9 1002.9 2.4
21/08:30pm WNW 25 37 - - - - - - - 13.9 1001.9 2.4
21/08:09pm NW 16 27 - - - - - - - 15.1 1000.7 2.4
21/08:00pm NW 12 19 - - - - - - - 15.0 1000.3 2.4
21/07:30pm N 15 25 - - - - - - - 15.0 999.6 2.4
21/07:00pm N 15 30 - - - - - - - 15.3 998.6 2.4
21/06:30pm N 18 30 - - - - - - - 15.7 998.7 2.4
21/06:07pm N 15 28 - - - - - - - 16.0 999.6 2.4
21/06:00pm N 15 23 - - - - - - - 16.2 999.8 2.4
21/05:45pm N 15 29 - - - - - - - 16.9 999.5 2.4
21/05:30pm N 10 17 - - - - - - - 16.8 999.4 2.4
21/05:08pm N 15 26 - - - - - - - 17.4 1001.1 2.4
21/05:00pm N 11 19 - - - - - - - 17.5 1001.2 2.4
21/04:30pm N 14 24 - - - - - - - 17.4 1000.2 2.4
21/04:00pm N 7 16 - - - - - - - 17.7 999.9 2.4
21/03:30pm N 14 25 - - - - - - - 17.8 1000.1 2.4
21/03:00pm NNE 13 28 - - - - - - Recent precip. 17.1 1002.0 2.4
21/02:30pm NNE 11 15 - - - - - - - 17.1 1001.8 2.4
21/02:00pm NE 16 20 - - - - - - - 16.1 1001.6 0.0
21/01:30pm NE 16 22 - - - - - - - 15.5 1001.6 0.0
21/01:00pm ENE 8 12 - - - - - - - 15.3 1002.2 0.0
21/12:30pm NE 12 16 - - - - - - - 15.4 1003.3 0.0
21/12:00pm ENE 11 14 - - - - - - - 15.7 1004.4 0.0
21/11:30am ENE 8 11 - - - - - - - 15.5 1004.8 0.0
21/11:00am NE 11 14 - - - - - - - 15.5 1005.4 0.0
21/10:30am NE 12 16 - - - - - - - 15.0 1005.9 0.0
21/10:00am NE 10 13 - - - - - - - 14.7 1006.3 0.0
21/09:30am NE 8 10 - - - - - - - 14.4 1006.9 0.0
21/09:00am NE 7 11 - - - - - - - 14.2 1007.3 0.0
21/08:30am NNE 6 11 - - - - - - - 13.9 1007.7 0.0
21/08:00am NNE 8 13 - - - - - - - 13.7 1007.9 0.0
21/07:30am NE 11 17 - - - - - - - 13.6 1008.4 0.0
21/07:00am NE 17 20 - - - - - - - 13.5 1008.4 0.0
21/06:30am ENE 12 16 - - - - - - - 13.5 1008.9 0.0

Other formats

Comma delimited format used in spreadsheet applications
http://www.bom.gov.au/fwo/IDT60701/IDT60701.94951.axf

JavaScript Object Notation format (JSON) in row-major order
http://www.bom.gov.au/fwo/IDT60701/IDT60701.94951.json

Data quality

Most of these data are generated automatically and are frequently updated. Quality checks on data are not normally performed. It is possible for incorrect values to appear. Refer to information at About Latest Weather Observations and please check the disclaimer before using these data.